Time;durP1;ratioP1;P1;durP2;ratioP2;P2;SDS_P1;SDS_P2;PMS_P1;PMS_P2;Temp;Humidity;BMP_temperature;BMP_pressure;BME280_temperature;BME280_humidity;BME280_pressure;Samples;Min_cycle;Max_cycle;Signal;HPM_P1;HPM_P2
2022/01/15 00:00:39;;;;;;;4.47;2.05;;;;;;;8.31;56.83;100570.86;2266379;85;25736;-84
2022/01/15 00:04:03;;;;;;;2.42;1.70;;;;;;;8.29;56.84;100573.38;2262680;85;25912;-84
2022/01/15 00:07:24;;;;;;;4.10;2.05;;;;;;;8.27;56.83;100564.67;2267759;86;25511;-86
2022/01/15 00:10:45;;;;;;;3.77;2.15;;;;;;;8.26;56.80;100567.66;2264483;85;25780;-88
2022/01/15 00:14:20;;;;;;;3.77;2.08;;;;;;;8.25;56.81;100582.77;2264102;85;25696;-86
2022/01/15 00:17:48;;;;;;;3.95;2.15;;;;;;;8.25;56.79;100582.77;2261567;85;25765;-87
2022/01/15 00:21:09;;;;;;;3.02;1.72;;;;;;;8.24;56.79;100587.93;2272830;86;25678;-85
2022/01/15 00:24:30;;;;;;;6.05;2.58;;;;;;;8.22;56.78;100586.56;2279009;82;25733;-84
2022/01/15 00:27:52;;;;;;;3.90;1.77;;;;;;;8.20;56.90;100579.14;2332773;82;27090;-84
2022/01/15 00:31:14;;;;;;;4.50;1.75;;;;;;;8.20;56.90;100579.14;2333625;83;25656;-85
2022/01/15 00:34:35;;;;;;;5.67;2.27;;;;;;;8.20;56.73;100589.92;2332830;83;25702;-86
2022/01/15 00:37:56;;;;;;;3.77;2.40;;;;;;;8.18;56.73;100577.31;2339097;82;26277;-85
2022/01/15 00:41:19;;;;;;;3.40;1.80;;;;;;;8.16;56.96;100571.17;2335206;83;27103;-87
2022/01/15 00:44:41;;;;;;;3.27;1.75;;;;;;;8.16;56.96;100571.17;2312489;82;25829;-86
2022/01/15 00:48:05;;;;;;;4.53;1.72;;;;;;;8.15;56.69;100565.52;2334064;82;26295;-84
2022/01/15 00:51:26;;;;;;;3.92;2.00;;;;;;;8.13;56.69;100565.44;2291743;82;25639;-86
2022/01/15 00:54:47;;;;;;;5.17;2.00;;;;;;;8.12;56.67;100577.09;2335510;84;25672;-85
2022/01/15 00:58:08;;;;;;;7.47;1.60;;;;;;;8.11;56.65;100571.02;2343941;82;25717;-84
2022/01/15 01:01:29;;;;;;;4.72;2.25;;;;;;;8.11;56.65;100575.33;2334631;83;25673;-88
2022/01/15 01:04:50;;;;;;;4.27;1.80;;;;;;;8.10;56.61;100570.55;2309470;84;27115;-85
2022/01/15 01:08:11;;;;;;;2.40;1.25;;;;;;;8.09;56.59;100577.84;2337654;82;25626;-84
2022/01/15 01:11:44;;;;;;;6.77;1.97;;;;;;;8.08;56.55;100577.39;2334993;83;28229;-85
2022/01/15 01:26:01;;;;;;;;;;;;;;;8.03;56.44;100596.70;2343680;83;25694;-85
2022/01/15 01:29:36;;;;;;;4.55;1.77;;;;;;;8.03;56.43;100599.30;2320597;83;26165;-84
2022/01/15 01:32:53;;;;;;;4.12;1.42;;;;;;;8.00;56.47;100599.19;2330694;83;25777;-84
2022/01/15 01:36:22;;;;;;;4.67;1.90;;;;;;;8.01;56.50;100606.55;2332114;83;26336;-85
2022/01/15 01:39:44;;;;;;;2.65;1.62;;;;;;;8.00;56.45;100609.98;2335656;82;30063;-84
2022/01/15 01:43:15;;;;;;;4.03;1.98;;;;;;;7.97;56.43;100601.66;2333491;82;25734;-84
2022/01/15 01:49:47;;;;;;;5.25;1.92;;;;;;;7.96;56.36;100605.06;2332403;82;25197;-84
2022/01/15 01:53:09;;;;;;;3.08;1.80;;;;;;;7.95;56.37;100596.81;2324920;83;25726;-84
2022/01/15 01:56:33;;;;;;;4.20;1.72;;;;;;;7.94;56.40;100592.87;2335779;82;25576;-85
2022/01/15 01:59:54;;;;;;;4.70;2.27;;;;;;;7.93;56.40;100595.89;2338439;82;25643;-84
2022/01/15 02:03:15;;;;;;;4.62;1.72;;;;;;;7.93;56.37;100599.78;2341738;82;26766;-85
2022/01/15 02:06:36;;;;;;;5.53;1.95;;;;;;;7.92;56.39;100601.01;2333463;82;25843;-84
2022/01/15 02:09:58;;;;;;;4.22;1.70;;;;;;;7.90;56.37;100601.38;2326544;82;25860;-84
2022/01/15 02:13:19;;;;;;;2.72;1.65;;;;;;;7.90;56.36;100602.68;2318223;82;25728;-84
2022/01/15 02:16:40;;;;;;;5.72;2.15;;;;;;;7.86;56.33;100593.86;2325615;83;25726;-84
2022/01/15 02:23:52;;;;;;;2.80;1.67;;;;;;;7.84;56.34;100595.53;2331147;83;25725;-84
2022/01/15 02:27:13;;;;;;;5.40;2.02;;;;;;;7.83;56.34;100591.56;2338086;82;25651;-83
2022/01/15 02:30:35;;;;;;;4.70;1.40;;;;;;;7.81;56.36;100592.82;2326064;82;25912;-84
2022/01/15 02:33:59;;;;;;;4.12;2.55;;;;;;;7.79;56.31;100589.27;2311980;83;25655;-84
2022/01/15 02:37:22;;;;;;;5.47;2.58;;;;;;;7.78;56.34;100596.59;2340949;82;25631;-84
2022/01/15 02:40:43;;;;;;;5.40;2.47;;;;;;;7.76;56.33;100595.25;2337576;83;25779;-85
2022/01/15 02:44:16;;;;;;;6.58;2.27;;;;;;;7.75;56.35;100594.76;2331436;82;25676;-84
2022/01/15 02:51:03;;;;;;;4.67;1.62;;;;;;;7.72;56.36;100595.05;2260272;86;26111;-85
2022/01/15 02:54:24;;;;;;;6.95;2.27;;;;;;;7.70;56.38;100585.93;2259328;86;25828;-86
2022/01/15 02:57:46;;;;;;;5.83;1.90;;;;;;;7.68;56.39;100586.69;2273581;86;26378;-86
2022/01/15 03:01:07;;;;;;;4.72;2.30;;;;;;;7.67;56.39;100587.11;2268258;84;25753;-85
2022/01/15 03:04:28;;;;;;;4.75;1.80;;;;;;;7.66;56.38;100586.64;2262325;86;25796;-85
2022/01/15 03:07:51;;;;;;;5.58;1.75;;;;;;;7.65;56.38;100582.67;2267960;85;25764;-86
2022/01/15 03:11:13;;;;;;;5.28;2.25;;;;;;;7.63;56.36;100589.12;2253627;86;25665;-84
2022/01/15 03:14:34;;;;;;;5.90;1.42;;;;;;;7.63;56.34;100590.80;2276536;85;25919;-84
2022/01/15 03:17:57;;;;;;;6.67;1.67;;;;;;;7.62;56.33;100596.41;2241925;85;25888;-85
2022/01/15 03:21:18;;;;;;;4.80;2.33;;;;;;;7.60;56.31;100592.89;2291552;86;26068;-85
2022/01/15 03:24:39;;;;;;;4.75;2.70;;;;;;;7.60;56.32;100593.30;2285545;86;25875;-85
2022/01/15 03:28:01;;;;;;;3.90;1.80;;;;;;;7.58;56.29;100599.30;2308417;83;34680;-85
2022/01/15 03:31:22;;;;;;;3.47;1.92;;;;;;;7.58;56.29;100594.53;2337660;82;25687;-84
2022/01/15 03:34:43;;;;;;;5.15;2.00;;;;;;;7.55;56.29;100597.00;2336661;82;25584;-84
2022/01/15 03:38:06;;;;;;;8.03;2.02;;;;;;;7.54;56.29;100592.22;2320831;83;25755;-85
2022/01/15 03:41:30;;;;;;;4.50;2.45;;;;;;;7.54;56.29;100599.13;2338429;82;25624;-84
2022/01/15 03:44:51;;;;;;;6.45;2.50;;;;;;;7.54;56.29;100596.12;2338233;82;25658;-86
2022/01/15 03:48:12;;;;;;;3.90;1.98;;;;;;;7.51;56.30;100599.88;2332896;83;25622;-84
2022/01/15 03:51:33;;;;;;;7.53;2.73;;;;;;;7.52;56.29;100605.95;2335128;82;25771;-87
2022/01/15 03:54:54;;;;;;;4.30;1.55;;;;;;;7.50;56.30;100617.58;2323266;83;25874;-86
2022/01/15 03:58:19;;;;;;;3.90;1.70;;;;;;;7.50;56.29;100616.70;2309233;82;25585;-88
2022/01/15 04:01:40;;;;;;;2.98;1.87;;;;;;;7.48;56.30;100610.14;2340545;82;26185;-87
2022/01/15 04:05:02;;;;;;;5.93;2.40;;;;;;;7.47;56.29;100617.45;2331766;82;25645;-86
2022/01/15 04:08:23;;;;;;;4.95;1.92;;;;;;;7.46;56.27;100612.19;2309116;83;25724;-87
2022/01/15 04:11:45;;;;;;;9.33;2.17;;;;;;;7.44;56.26;100618.62;2300735;83;25695;-86
2022/01/15 04:15:08;;;;;;;4.53;2.10;;;;;;;7.43;56.24;100621.18;2333951;82;25578;-86
2022/01/15 04:18:36;;;;;;;5.28;2.60;;;;;;;7.40;56.23;100612.85;2334037;82;25747;-86
2022/01/15 04:21:52;;;;;;;4.15;1.72;;;;;;;7.40;56.23;100622.34;2334580;82;25696;-87
2022/01/15 04:25:17;;;;;;;6.23;2.53;;;;;;;7.39;56.25;100630.93;2335879;83;25887;-86
2022/01/15 04:28:40;;;;;;;5.47;1.95;;;;;;;7.37;56.23;100628.70;2328976;83;25744;-86
2022/01/15 04:32:02;;;;;;;6.05;1.92;;;;;;;7.36;56.23;100631.72;2335070;83;25994;-85
2022/01/15 04:35:23;;;;;;;6.20;2.95;;;;;;;7.34;56.21;100635.53;2330554;83;25689;-85
2022/01/15 04:38:45;;;;;;;7.70;2.47;;;;;;;7.32;56.19;100624.23;2313283;83;25668;-85
2022/01/15 04:42:06;;;;;;;4.33;2.15;;;;;;;7.31;56.18;100634.10;2333380;82;25895;-84
2022/01/15 04:45:27;;;;;;;6.55;2.47;;;;;;;7.30;56.20;100632.77;2332686;83;25639;-85
2022/01/15 04:48:48;;;;;;;5.22;2.10;;;;;;;7.29;56.20;100634.47;2331813;83;25670;-85
2022/01/15 04:52:12;;;;;;;7.28;1.72;;;;;;;7.27;56.19;100632.63;2310447;83;25687;-85
2022/01/15 04:55:33;;;;;;;3.92;1.85;;;;;;;7.26;56.19;100642.54;2333947;82;25677;-85
2022/01/15 04:58:54;;;;;;;5.67;2.07;;;;;;;7.25;56.18;100649.82;2319703;83;26090;-85
2022/01/15 05:02:14;;;;;;;5.90;2.03;;;;;;;7.25;56.16;100651.13;2335713;83;25585;-86
2022/01/15 05:05:35;;;;;;;7.23;2.13;;;;;;;7.24;56.17;100662.33;2323032;83;25832;-86
2022/01/15 05:09:04;;;;;;;5.97;2.07;;;;;;;7.22;56.14;100666.16;2333636;83;26150;-87
2022/01/15 05:15:56;;;;;;;3.27;2.15;;;;;;;7.21;56.09;100679.05;2218913;87;25737;-86
2022/01/15 05:19:20;;;;;;;5.87;2.77;;;;;;;7.19;56.07;100684.19;2197677;87;25706;-87
2022/01/15 05:22:41;;;;;;;3.70;1.57;;;;;;;7.18;56.06;100688.88;2198904;87;25916;-86
2022/01/15 05:26:03;;;;;;;6.80;2.75;;;;;;;7.17;56.06;100692.72;2221742;87;26531;-88
2022/01/15 05:29:26;;;;;;;8.48;2.58;;;;;;;7.17;56.05;100697.90;2191201;89;26101;-85
2022/01/15 05:32:47;;;;;;;8.23;2.20;;;;;;;7.15;56.05;100696.52;2219323;88;25718;-87
2022/01/15 05:36:08;;;;;;;5.63;2.30;;;;;;;7.14;56.01;100696.05;2218157;87;25786;-84
2022/01/15 05:39:29;;;;;;;5.13;2.33;;;;;;;7.12;56.00;100697.72;2220848;87;25810;-87
2022/01/15 05:42:53;;;;;;;8.93;2.03;;;;;;;7.13;56.00;100703.78;2218455;87;25847;-87
2022/01/15 05:46:14;;;;;;;4.50;2.25;;;;;;;7.12;55.99;100704.58;2217453;87;26353;-84
2022/01/15 05:49:38;;;;;;;5.70;1.85;;;;;;;7.12;56.00;100704.58;2203986;87;25713;-84
2022/01/15 05:53:00;;;;;;;4.25;2.45;;;;;;;7.10;55.99;100704.12;2307065;82;25689;-86
2022/01/15 05:56:20;;;;;;;4.95;1.77;;;;;;;7.09;55.97;100699.77;2332702;83;25218;-85
2022/01/15 05:59:41;;;;;;;6.57;2.03;;;;;;;7.10;55.95;100709.30;2333916;82;25842;-86
2022/01/15 06:03:02;;;;;;;4.55;2.00;;;;;;;7.09;55.96;100701.47;2342775;82;25600;-85
2022/01/15 06:06:25;;;;;;;3.50;1.95;;;;;;;7.08;55.95;100699.27;2337833;82;26036;-86
2022/01/15 06:09:48;;;;;;;4.62;2.15;;;;;;;7.08;55.94;100708.75;2334581;82;25799;-87
2022/01/15 06:13:09;;;;;;;5.72;2.17;;;;;;;7.07;55.93;100703.98;2334073;83;25632;-84
2022/01/15 06:16:30;;;;;;;6.50;2.13;;;;;;;7.06;55.91;100710.00;2333682;82;25789;-85
2022/01/15 06:19:51;;;;;;;5.50;2.27;;;;;;;7.06;55.92;100715.19;2338217;82;25785;-86
2022/01/15 06:23:12;;;;;;;5.50;2.30;;;;;;;7.05;55.89;100717.31;2338596;82;25704;-85
2022/01/15 06:26:32;;;;;;;6.40;3.33;;;;;;;7.05;55.89;100721.58;2334152;83;25774;-85
2022/01/15 06:29:56;;;;;;;4.83;2.03;;;;;;;7.05;55.86;100726.77;2336760;83;26084;-85
2022/01/15 06:33:17;;;;;;;3.90;1.70;;;;;;;7.05;55.87;100730.66;2330572;82;25618;-84
2022/01/15 06:36:40;;;;;;;2.77;1.72;;;;;;;7.05;55.86;100735.45;2334675;83;25608;-84
2022/01/15 06:40:01;;;;;;;6.20;1.90;;;;;;;7.04;55.87;100729.77;2334156;83;26027;-84
2022/01/15 06:43:22;;;;;;;3.15;1.52;;;;;;;7.05;55.85;100726.38;2338299;82;25855;-83
2022/01/15 06:46:43;;;;;;;6.62;2.27;;;;;;;7.06;55.83;100735.05;2302602;83;26100;-85
2022/01/15 06:50:08;;;;;;;4.80;1.92;;;;;;;7.07;55.81;100728.61;2338823;83;25695;-85
2022/01/15 06:53:32;;;;;;;5.33;1.80;;;;;;;7.09;55.80;100729.98;2308540;82;25655;-86
2022/01/15 06:56:53;;;;;;;6.12;1.70;;;;;;;7.10;55.79;100740.83;2323695;83;26246;-84
2022/01/15 07:00:15;;;;;;;3.77;1.70;;;;;;;7.10;55.78;100728.75;2306964;82;25779;-84
2022/01/15 07:03:36;;;;;;;4.70;1.95;;;;;;;7.14;55.71;100740.13;2329671;82;25716;-86
2022/01/15 07:06:57;;;;;;;6.07;2.33;;;;;;;7.17;55.67;100744.57;2331648;82;25824;-85
2022/01/15 07:10:18;;;;;;;5.47;2.45;;;;;;;7.19;55.63;100760.68;2332754;82;25800;-85
2022/01/15 07:13:39;;;;;;;5.35;2.27;;;;;;;7.23;55.58;100769.06;2312652;84;25714;-85
2022/01/15 07:17:00;;;;;;;5.70;1.93;;;;;;;7.27;55.54;100770.95;2335083;82;26291;-84
2022/01/15 07:20:21;;;;;;;5.75;2.25;;;;;;;7.32;55.47;100764.28;2310537;82;25765;-84
2022/01/15 07:23:42;;;;;;;3.17;1.47;;;;;;;7.38;55.42;100758.86;2330713;82;25770;-85
2022/01/15 07:27:08;;;;;;;5.20;1.93;;;;;;;7.43;55.36;100761.25;2332172;83;34716;-85
2022/01/15 07:30:29;;;;;;;3.47;2.22;;;;;;;7.48;55.28;100762.31;2333894;82;25670;-85
2022/01/15 07:33:50;;;;;;;5.70;2.07;;;;;;;7.53;55.22;100762.11;2331217;83;25740;-85
2022/01/15 07:37:11;;;;;;;6.60;2.33;;;;;;;7.60;55.16;100764.55;2331645;82;25675;-85
2022/01/15 07:40:32;;;;;;;6.25;2.67;;;;;;;7.66;55.09;100772.56;2335197;83;25605;-85
2022/01/15 07:43:55;;;;;;;4.60;2.03;;;;;;;7.72;55.03;100773.70;2335677;83;25704;-86
2022/01/15 07:47:16;;;;;;;5.78;2.27;;;;;;;7.78;54.94;100777.86;2333270;82;25724;-85
2022/01/15 07:50:37;;;;;;;5.53;3.00;;;;;;;7.92;54.97;100788.80;2338547;82;25866;-86
2022/01/15 07:54:02;;;;;;;4.95;2.47;;;;;;;9.78;54.52;100786.17;2331894;83;25602;-85
2022/01/15 07:57:24;;;;;;;7.28;2.87;;;;;;;12.09;52.36;100789.37;2335078;83;25278;-88
2022/01/15 08:00:45;;;;;;;5.90;3.33;;;;;;;13.97;49.96;100794.91;2340039;82;25661;-86
2022/01/15 08:04:06;;;;;;;6.25;3.02;;;;;;;15.31;48.01;100794.58;2332881;83;25518;-87
2022/01/15 08:07:27;;;;;;;5.50;3.58;;;;;;;16.41;46.35;100805.22;2334536;82;30915;-86
2022/01/15 08:10:48;;;;;;;6.17;5.60;;;;;;;17.27;44.93;100802.14;2340964;82;25597;-87
2022/01/15 08:14:09;;;;;;;7.10;5.45;;;;;;;18.18;43.51;100798.30;2330825;83;25798;-85
2022/01/15 08:17:30;;;;;;;5.22;4.72;;;;;;;19.07;42.18;100811.77;2335286;82;25754;-85
2022/01/15 08:20:51;;;;;;;11.08;10.32;;;;;;;20.01;40.82;100810.73;2334129;83;25667;-87
2022/01/15 08:24:12;;;;;;;6.50;3.72;;;;;;;20.98;39.53;100828.77;2341870;83;25730;-85
2022/01/15 08:27:33;;;;;;;9.98;9.08;;;;;;;22.07;37.84;100835.64;2337709;82;25852;-86
2022/01/15 08:30:56;;;;;;;7.58;7.05;;;;;;;22.84;36.86;100841.36;2337217;82;25828;-85
2022/01/15 08:34:23;;;;;;;6.85;6.22;;;;;;;23.83;35.53;100841.52;2333950;83;25670;-88
2022/01/15 08:37:44;;;;;;;5.33;4.78;;;;;;;24.72;34.39;100843.26;2316780;83;25616;-86
2022/01/15 08:41:05;;;;;;;5.05;3.52;;;;;;;25.65;33.19;100841.01;2333185;83;25695;-87
2022/01/15 08:44:26;;;;;;;4.62;3.62;;;;;;;26.42;32.07;100842.48;2313171;83;25762;-84
2022/01/15 08:47:48;;;;;;;4.75;3.20;;;;;;;27.23;31.08;100837.77;2330460;82;26240;-86
2022/01/15 08:51:14;;;;;;;6.03;3.37;;;;;;;28.03;30.06;100848.03;2306254;83;25688;-84
2022/01/15 08:54:36;;;;;;;6.40;3.40;;;;;;;28.63;29.26;100858.45;2330902;83;25719;-83
2022/01/15 08:57:56;;;;;;;3.22;2.70;;;;;;;29.06;28.61;100854.33;2322141;83;25694;-85
2022/01/15 09:01:18;;;;;;;4.47;3.22;;;;;;;29.47;28.07;100851.55;2314808;82;25751;-84
2022/01/15 09:04:39;;;;;;;4.75;2.83;;;;;;;30.02;27.42;100853.78;2314528;82;25700;-90
2022/01/15 09:08:03;;;;;;;4.20;3.00;;;;;;;30.57;26.92;100860.87;2313854;82;25625;-89
2022/01/15 09:11:24;;;;;;;4.47;3.00;;;;;;;30.99;26.34;100871.23;2337506;83;25159;-84
2022/01/15 09:14:48;;;;;;;5.53;3.10;;;;;;;31.13;26.07;100878.56;2336383;82;25746;-91
2022/01/15 09:18:09;;;;;;;6.25;2.72;;;;;;;31.50;25.98;100880.63;2341808;83;25212;-84
2022/01/15 09:21:30;;;;;;;4.55;2.58;;;;;;;31.23;25.61;100885.20;2336643;82;26387;-92
2022/01/15 09:24:52;;;;;;;3.85;2.70;;;;;;;30.94;25.57;100889.93;2347137;82;25710;-90
2022/01/15 09:31:52;;;;;;;5.75;2.72;;;;;;;30.57;25.75;100890.48;2383578;81;25361;-91
2022/01/15 09:35:16;;;;;;;3.50;2.25;;;;;;;30.07;26.02;100888.05;2382701;81;25971;-90
2022/01/15 09:38:39;;;;;;;4.25;3.30;;;;;;;29.41;26.27;100891.18;2374210;82;25436;-86
2022/01/15 09:42:01;;;;;;;4.65;2.70;;;;;;;29.00;26.72;100893.09;2380259;81;54218;-85
2022/01/15 09:45:24;;;;;;;6.53;3.35;;;;;;;28.59;27.15;100882.34;2360564;82;25273;-90
2022/01/15 09:48:47;;;;;;;5.62;3.33;;;;;;;28.29;27.57;100876.91;2381461;81;25662;-87
2022/01/15 09:52:08;;;;;;;4.80;2.87;;;;;;;28.00;27.85;100871.81;2376292;82;26299;-81
2022/01/15 09:55:29;;;;;;;4.73;2.57;;;;;;;27.72;28.23;100877.39;2376459;81;25697;-82
2022/01/15 09:58:52;;;;;;;4.95;2.62;;;;;;;27.49;28.56;100882.30;2362040;82;25659;-82
2022/01/15 10:02:14;;;;;;;4.12;2.33;;;;;;;26.66;29.02;100878.22;2363846;81;25843;-81
2022/01/15 10:05:35;;;;;;;5.20;2.70;;;;;;;26.04;29.66;100886.95;2363549;82;26145;-81
2022/01/15 10:09:08;;;;;;;4.45;2.58;;;;;;;25.33;30.29;100886.02;2363475;81;25623;-85
2022/01/15 10:12:35;;;;;;;3.62;2.12;;;;;;;24.77;30.95;100889.32;2364510;81;25623;-81
2022/01/15 10:16:02;;;;;;;4.80;2.77;;;;;;;24.19;31.69;100884.14;2354639;81;25719;-86
2022/01/15 10:19:34;;;;;;;3.98;2.40;;;;;;;24.16;32.15;100869.56;2357126;81;25739;-81
2022/01/15 10:22:56;;;;;;;5.78;3.05;;;;;;;24.60;32.25;100874.23;2362910;81;25843;-83
2022/01/15 10:26:20;;;;;;;5.67;2.95;;;;;;;24.59;32.34;100866.70;2358324;81;25712;-81
2022/01/15 10:29:41;;;;;;;11.68;2.77;;;;;;;24.80;32.41;100870.58;2361840;82;25785;-83
2022/01/15 10:33:09;;;;;;;5.97;3.85;;;;;;;25.37;32.32;100879.66;2363972;81;25647;-82
2022/01/15 10:36:33;;;;;;;4.80;3.37;;;;;;;25.39;32.00;100884.52;2354857;81;26114;-83
2022/01/15 10:39:58;;;;;;;5.33;2.80;;;;;;;25.47;31.96;100904.30;2363339;81;25604;-83
2022/01/15 10:43:21;;;;;;;5.50;2.35;;;;;;;25.17;32.13;100910.94;2354010;81;25648;-84
2022/01/15 10:46:45;;;;;;;4.95;2.98;;;;;;;24.56;32.41;100893.91;2363825;81;25576;-81
2022/01/15 10:50:08;;;;;;;5.65;2.65;;;;;;;24.17;33.00;100902.84;2352810;81;26113;-83
2022/01/15 10:53:38;;;;;;;5.75;2.87;;;;;;;23.80;33.29;100909.48;2357591;81;25321;-85
2022/01/15 10:57:09;;;;;;;4.35;3.50;;;;;;;23.31;33.73;100903.84;2356346;81;25716;-80
2022/01/15 11:00:52;;;;;;;6.62;2.15;;;;;;;23.08;34.20;100887.92;2354595;82;25688;-86
2022/01/15 11:04:18;;;;;;;8.50;2.87;;;;;;;23.08;37.38;100901.22;2247016;85;25796;-88
2022/01/15 11:07:39;;;;;;;8.50;2.70;;;;;;;22.70;37.98;100907.66;2197868;85;25983;-83
2022/01/15 11:11:05;;;;;;;3.87;2.17;;;;;;;22.15;38.56;100916.98;2237039;85;25717;-83
2022/01/15 11:14:26;;;;;;;4.15;2.67;;;;;;;21.68;39.11;100927.81;2245376;85;25936;-79
2022/01/15 11:17:47;;;;;;;3.90;2.15;;;;;;;21.34;39.89;100929.11;2247908;85;25966;-82
2022/01/15 11:21:15;;;;;;;5.30;2.10;;;;;;;20.94;40.39;100921.15;2255033;85;26146;-81
2022/01/15 11:24:37;;;;;;;4.00;2.02;;;;;;;20.84;40.93;100912.86;2219998;87;25672;-79
2022/01/15 11:27:59;;;;;;;6.65;2.90;;;;;;;20.68;40.54;100916.55;2240095;87;25970;-81
2022/01/15 11:31:25;;;;;;;6.72;3.50;;;;;;;20.45;40.09;100921.59;2251476;86;25882;-80
2022/01/15 11:35:05;;;;;;;6.30;3.08;;;;;;;20.19;39.80;100929.73;2244132;86;25704;-84
2022/01/15 11:38:45;;;;;;;5.87;3.37;;;;;;;19.98;39.62;100936.47;2253572;87;25634;-81
2022/01/15 11:42:08;;;;;;;6.20;3.02;;;;;;;19.77;39.23;100928.22;2332745;81;25678;-80
2022/01/15 11:45:35;;;;;;;9.18;3.52;;;;;;;19.63;39.01;100932.27;2345879;83;25667;-80
2022/01/15 11:49:31;;;;;;;7.35;3.12;;;;;;;19.58;39.03;100926.97;2330079;83;25720;-80
2022/01/15 11:52:52;;;;;;;8.15;2.95;;;;;;;19.48;38.26;100920.41;2368097;81;25648;-79
2022/01/15 11:56:29;;;;;;;8.75;3.75;;;;;;;19.40;38.20;100917.78;2378305;81;26501;-80
2022/01/15 11:59:52;;;;;;;8.10;3.22;;;;;;;19.27;37.98;100926.22;2377971;81;25675;-81
2022/01/15 12:03:15;;;;;;;6.55;2.85;;;;;;;19.31;37.92;100921.80;2379967;82;25752;-82
2022/01/15 12:07:07;;;;;;;7.47;3.05;;;;;;;19.23;37.81;100923.58;2383899;81;25165;-80
2022/01/15 12:10:46;;;;;;;5.25;2.80;;;;;;;19.27;37.91;100925.31;2373494;81;25765;-80
2022/01/15 12:14:06;;;;;;;7.05;3.58;;;;;;;19.67;37.26;100921.22;2378901;82;25705;-81
2022/01/15 12:17:46;;;;;;;6.83;3.35;;;;;;;19.77;36.82;100926.45;2378637;81;25766;-79
2022/01/15 12:21:07;;;;;;;6.40;3.45;;;;;;;19.63;36.79;100924.33;2379654;82;25626;-82
2022/01/15 12:24:41;;;;;;;6.00;2.85;;;;;;;19.36;36.85;100930.58;2364865;81;25788;-81
2022/01/15 12:28:06;;;;;;;6.55;2.60;;;;;;;19.34;36.84;100930.60;2351446;83;25707;-81
2022/01/15 12:31:27;;;;;;;7.75;3.05;;;;;;;19.17;37.18;100929.78;2333337;82;25810;-82
2022/01/15 12:34:48;;;;;;;7.47;2.90;;;;;;;19.48;37.33;100926.58;2322583;83;25673;-83
2022/01/15 12:38:13;;;;;;;4.05;2.60;;;;;;;19.70;37.25;100931.79;2317419;83;25886;-80
2022/01/15 12:41:35;;;;;;;8.13;3.58;;;;;;;19.52;37.33;100930.09;2335439;82;25670;-83
2022/01/15 12:44:57;;;;;;;5.85;3.00;;;;;;;19.35;37.68;100931.03;2335343;82;25831;-89
2022/01/15 12:48:22;;;;;;;9.45;2.92;;;;;;;19.18;37.95;100929.34;2336559;82;25757;-83
2022/01/15 12:51:43;;;;;;;6.67;2.67;;;;;;;19.00;38.22;100932.47;2333177;83;26336;-82
2022/01/15 12:55:05;;;;;;;5.97;2.77;;;;;;;18.80;38.63;100937.78;2363600;82;25794;-83
2022/01/15 12:58:28;;;;;;;8.48;2.75;;;;;;;18.56;39.10;100930.73;2359361;81;25635;-84
2022/01/15 13:01:49;;;;;;;6.90;2.20;;;;;;;18.56;39.27;100937.34;2355638;81;25769;-82
2022/01/15 13:05:12;;;;;;;5.03;2.72;;;;;;;18.28;39.67;100939.51;2356832;81;25778;-83
2022/01/15 13:08:41;;;;;;;7.83;3.27;;;;;;;17.97;40.10;100944.73;2363051;81;25640;-83
2022/01/15 13:12:04;;;;;;;7.08;2.95;;;;;;;17.71;40.53;100943.30;2331147;81;25714;-84
2022/01/15 13:15:28;;;;;;;5.40;3.30;;;;;;;17.44;40.88;100944.08;2359203;81;25680;-83
2022/01/15 13:18:58;;;;;;;6.03;3.20;;;;;;;17.16;41.34;100935.16;2353306;81;26049;-82
2022/01/15 13:22:21;;;;;;;9.75;3.12;;;;;;;16.92;41.79;100937.22;2359341;81;25672;-82
2022/01/15 13:25:49;;;;;;;5.17;2.60;;;;;;;16.70;42.16;100941.41;2354985;81;25996;-81
2022/01/15 13:29:15;;;;;;;4.15;2.77;;;;;;;16.53;42.53;100942.59;2348105;83;25810;-83
2022/01/15 13:32:36;;;;;;;7.78;3.10;;;;;;;16.36;43.01;100942.45;2333328;83;25784;-82
2022/01/15 13:36:01;;;;;;;7.75;3.20;;;;;;;16.21;43.27;100939.69;2338114;83;31434;-83
2022/01/15 13:39:22;;;;;;;7.15;2.75;;;;;;;16.04;43.54;100946.10;2302156;82;25891;-83
2022/01/15 13:42:45;;;;;;;6.00;3.10;;;;;;;15.88;43.89;100947.68;2331968;83;25917;-82
2022/01/15 13:46:16;;;;;;;8.00;3.30;;;;;;;15.79;44.07;100947.56;2325187;82;25802;-83
2022/01/15 13:53:35;;;;;;;9.98;3.08;;;;;;;15.61;44.48;100956.09;2355458;81;25598;-81
2022/01/15 13:57:04;;;;;;;8.65;2.83;;;;;;;15.52;44.57;100959.52;2359129;81;25703;-83
2022/01/15 14:00:25;;;;;;;10.00;3.15;;;;;;;15.47;44.74;100969.50;2339944;81;25669;-81
2022/01/15 14:03:46;;;;;;;5.87;3.05;;;;;;;15.39;44.84;100961.93;2347916;81;30952;-82
2022/01/15 14:07:12;;;;;;;6.03;2.90;;;;;;;15.25;45.08;100959.13;2381079;81;25624;-81
2022/01/15 14:10:35;;;;;;;7.87;2.90;;;;;;;15.11;45.32;100953.67;2373956;81;25871;-82
2022/01/15 14:14:06;;;;;;;8.35;3.30;;;;;;;14.97;45.53;100957.42;2373799;81;25631;-82
2022/01/15 14:17:27;;;;;;;4.80;3.05;;;;;;;14.82;45.72;100949.33;2372372;81;25838;-82
2022/01/15 14:24:26;;;;;;;9.33;2.67;;;;;;;14.50;46.20;100953.61;2317508;83;25655;-82
2022/01/15 14:28:10;;;;;;;7.58;3.95;;;;;;;14.36;46.30;100951.16;2318769;83;25701;-81
2022/01/15 14:31:31;;;;;;;8.18;3.42;;;;;;;14.22;46.45;100961.41;2212577;86;25897;-82
2022/01/15 14:34:55;;;;;;;9.78;3.77;;;;;;;14.05;46.62;100961.09;2220752;86;31030;-81
2022/01/15 14:38:17;;;;;;;7.10;3.30;;;;;;;13.92;46.73;100959.10;2232728;87;26132;-86
2022/01/15 14:41:37;;;;;;;4.75;2.85;;;;;;;13.80;46.88;100958.85;2226601;87;25844;-86
2022/01/15 14:44:58;;;;;;;10.78;3.47;;;;;;;13.67;46.87;100966.92;2187722;86;31013;-84
2022/01/15 14:48:22;;;;;;;7.35;3.55;;;;;;;13.53;47.19;100962.67;2220637;87;25885;-84
2022/01/15 14:51:42;;;;;;;7.80;4.10;;;;;;;13.42;47.39;100972.05;2204758;87;26267;-85
2022/01/15 14:55:07;;;;;;;7.58;3.50;;;;;;;13.30;47.55;100977.05;2226637;87;26422;-84
2022/01/15 14:58:35;;;;;;;8.05;3.45;;;;;;;13.16;47.68;100971.05;2228426;87;25744;-86
2022/01/15 15:01:56;;;;;;;6.12;3.22;;;;;;;12.95;47.92;100966.17;2220036;87;26256;-85
2022/01/15 15:05:18;;;;;;;6.28;3.50;;;;;;;12.86;48.19;100965.07;2225918;87;25830;-83
2022/01/15 15:08:39;;;;;;;7.95;3.52;;;;;;;12.86;48.19;100965.07;2251851;83;25729;-84
2022/01/15 15:12:02;;;;;;;7.87;3.80;;;;;;;12.67;48.21;100960.72;2345604;81;25621;-84
2022/01/15 15:15:24;;;;;;;4.70;3.40;;;;;;;12.67;48.21;100960.72;2337546;82;26113;-86
2022/01/15 15:18:45;;;;;;;7.35;3.92;;;;;;;12.58;48.27;100968.77;2347208;83;25602;-83
2022/01/15 15:22:06;;;;;;;8.70;4.00;;;;;;;12.49;48.36;100972.05;2291239;83;31129;-83
2022/01/15 15:25:32;;;;;;;6.78;3.83;;;;;;;12.30;48.62;100978.53;2310401;83;30831;-84
2022/01/15 15:28:58;;;;;;;6.95;4.40;;;;;;;12.30;48.62;100978.53;2305700;83;25955;-85
2022/01/15 15:32:15;;;;;;;8.20;4.33;;;;;;;12.21;48.58;100976.97;2345751;83;25839;-85
2022/01/15 15:35:36;;;;;;;6.85;3.95;;;;;;;12.13;48.65;100983.31;2317673;83;31521;-84
2022/01/15 15:39:00;;;;;;;8.28;3.80;;;;;;;12.05;48.74;100987.03;2342049;81;32007;-83
2022/01/15 15:42:24;;;;;;;6.80;4.10;;;;;;;11.96;48.76;100986.77;2349801;81;25791;-85
2022/01/15 15:45:46;;;;;;;8.68;4.40;;;;;;;11.87;48.84;100985.20;2340954;83;25660;-86
2022/01/15 15:49:07;;;;;;;8.58;4.37;;;;;;;11.80;48.90;100994.56;2342178;83;25726;-85
2022/01/15 15:52:28;;;;;;;6.42;4.20;;;;;;;11.72;48.97;100992.16;2341249;83;25820;-86
2022/01/15 15:55:51;;;;;;;10.78;5.95;;;;;;;11.66;49.01;100990.67;2348185;83;31088;-84
